createdAt,value
2023-01-18T00:00:34.959Z,7.60
2023-01-18T00:03:03.460Z,7.40
2023-01-18T00:05:33.293Z,6.17
2023-01-18T00:08:01.879Z,6.57
2023-01-18T00:10:30.418Z,8.20
2023-01-18T00:12:59.852Z,6.97
2023-01-18T00:15:28.609Z,8.07
2023-01-18T00:17:57.440Z,5.07
2023-01-18T00:20:26.974Z,5.87
2023-01-18T00:22:57.247Z,7.43
2023-01-18T00:25:26.250Z,6.67
2023-01-18T00:27:55.888Z,5.80
2023-01-18T00:30:25.134Z,5.70
2023-01-18T00:32:55.751Z,5.73
2023-01-18T00:35:25.034Z,6.53
2023-01-18T00:37:54.260Z,6.73
2023-01-18T00:40:28.314Z,7.70
2023-01-18T00:43:14.829Z,7.00
2023-01-18T00:45:44.044Z,6.40
2023-01-18T00:48:12.654Z,5.97
2023-01-18T00:50:41.275Z,4.73
2023-01-18T00:53:09.818Z,5.67
2023-01-18T00:55:39.736Z,6.97
2023-01-18T00:58:08.253Z,7.27
2023-01-18T01:00:36.912Z,5.60
2023-01-18T01:03:05.420Z,6.00
2023-01-18T01:05:51.830Z,5.87
2023-01-18T01:08:21.584Z,6.70
2023-01-18T01:10:52.614Z,7.47
2023-01-18T01:13:40.048Z,5.77
2023-01-18T01:16:26.796Z,6.53
2023-01-18T01:19:13.145Z,6.57
2023-01-18T01:21:59.764Z,6.27
2023-01-18T01:24:46.225Z,6.07
2023-01-18T01:27:17.361Z,5.70
2023-01-18T01:29:46.059Z,6.03
2023-01-18T01:32:14.638Z,5.27
2023-01-18T01:34:43.191Z,7.17
2023-01-18T01:37:11.713Z,4.60
2023-01-18T01:39:40.287Z,5.67
2023-01-18T01:42:12.021Z,7.37
2023-01-18T01:44:45.095Z,6.10
2023-01-18T01:47:15.479Z,6.13
2023-01-18T01:49:46.737Z,5.27
2023-01-18T01:52:16.529Z,5.13
2023-01-18T01:54:47.574Z,4.80
2023-01-18T01:57:17.511Z,6.53
2023-01-18T01:59:51.396Z,4.77
2023-01-18T02:02:20.086Z,5.53
2023-01-18T02:04:53.645Z,5.83
2023-01-18T02:07:22.393Z,5.20
2023-01-18T02:09:51.415Z,4.77
2023-01-18T02:12:20.666Z,4.60
2023-01-18T02:14:50.800Z,4.97
2023-01-18T02:17:25.743Z,6.20
2023-01-18T02:20:09.104Z,6.10
2023-01-18T02:22:45.963Z,6.47
2023-01-18T02:25:28.235Z,5.43
2023-01-18T02:28:06.653Z,4.93
2023-01-18T02:30:38.723Z,6.37
2023-01-18T02:33:10.495Z,6.67
2023-01-18T02:35:44.106Z,6.00
2023-01-18T02:38:14.806Z,6.33
2023-01-18T02:40:58.572Z,6.83
2023-01-18T02:43:46.752Z,5.43
2023-01-18T02:46:33.900Z,6.13
2023-01-18T02:49:03.992Z,4.67
2023-01-18T02:51:32.659Z,6.37
2023-01-18T02:54:01.547Z,5.70
2023-01-18T02:56:33.504Z,6.17
2023-01-18T02:59:05.982Z,5.73
2023-01-18T03:01:38.607Z,6.53
2023-01-18T03:04:10.278Z,5.33
2023-01-18T03:06:39.865Z,6.80
2023-01-18T03:09:08.389Z,5.57
2023-01-18T03:11:39.631Z,5.33
2023-01-18T03:14:15.435Z,5.97
2023-01-18T03:16:57.952Z,6.10
2023-01-18T03:19:50.971Z,5.17
2023-01-18T03:22:39.667Z,8.97
2023-01-18T03:25:09.354Z,5.00
2023-01-18T03:27:56.241Z,5.20
2023-01-18T03:30:44.393Z,5.33
2023-01-18T03:33:31.469Z,5.83
2023-01-18T03:36:01.330Z,6.10
2023-01-18T03:38:31.155Z,6.13
2023-01-18T03:41:01.598Z,5.77
2023-01-18T03:43:36.342Z,6.20
2023-01-18T03:46:07.935Z,5.90
2023-01-18T03:48:37.664Z,6.97
2023-01-18T03:51:11.007Z,6.90
2023-01-18T03:53:41.573Z,7.00
2023-01-18T03:56:12.396Z,6.53
2023-01-18T03:58:42.136Z,6.47
2023-01-18T04:01:12.185Z,8.20
2023-01-18T04:03:40.826Z,6.67
2023-01-18T04:06:09.684Z,7.80
2023-01-18T04:08:38.276Z,7.27
2023-01-18T04:11:06.964Z,7.13
2023-01-18T04:13:35.518Z,6.33
2023-01-18T04:16:04.685Z,7.20
2023-01-18T04:18:34.648Z,7.00
2023-01-18T04:21:03.204Z,6.20
2023-01-18T04:23:31.748Z,8.23
2023-01-18T04:26:00.316Z,7.77
2023-01-18T04:28:28.936Z,7.23
2023-01-18T04:30:58.029Z,8.90
2023-01-18T04:33:27.517Z,7.83
2023-01-18T04:35:57.546Z,6.37
2023-01-18T04:38:26.086Z,8.07
2023-01-18T04:40:54.632Z,6.40
2023-01-18T04:43:23.192Z,7.37
2023-01-18T04:45:55.519Z,8.27
2023-01-18T04:48:24.604Z,6.67
2023-01-18T04:50:53.228Z,7.10
2023-01-18T04:53:23.608Z,7.13
2023-01-18T04:55:52.186Z,8.97
2023-01-18T04:58:20.760Z,8.53
2023-01-18T05:00:49.447Z,7.67
2023-01-18T05:03:18.085Z,7.00
2023-01-18T05:05:46.619Z,5.93
2023-01-18T05:08:15.122Z,7.23
2023-01-18T05:10:45.003Z,6.87
2023-01-18T05:13:13.549Z,6.73
2023-01-18T05:15:42.618Z,7.60
2023-01-18T05:18:11.236Z,5.73
2023-01-18T05:20:39.885Z,8.07
2023-01-18T05:23:10.965Z,7.47
2023-01-18T05:25:40.129Z,6.53
2023-01-18T05:28:10.453Z,6.80
2023-01-18T05:30:40.490Z,8.13
2023-01-18T05:33:09.315Z,7.40
2023-01-18T05:35:38.054Z,8.43
2023-01-18T05:38:06.687Z,8.20
2023-01-18T05:40:35.279Z,10.50
2023-01-18T05:43:03.884Z,8.10
2023-01-18T05:45:34.327Z,7.63
2023-01-18T05:48:03.895Z,8.30
2023-01-18T05:50:32.455Z,10.83
2023-01-18T05:53:01.476Z,9.03
2023-01-18T05:55:30.203Z,9.43
2023-01-18T05:57:58.753Z,8.30
2023-01-18T06:00:27.399Z,10.90
2023-01-18T06:02:57.588Z,10.20
2023-01-18T06:05:26.509Z,8.67
2023-01-18T06:07:55.067Z,9.97
2023-01-18T06:10:23.656Z,11.57
2023-01-18T06:12:52.368Z,10.10
2023-01-18T06:15:21.075Z,8.83
2023-01-18T06:17:49.640Z,11.60
2023-01-18T06:20:19.876Z,8.50
2023-01-18T06:22:48.514Z,8.60
2023-01-18T06:25:17.233Z,12.37
2023-01-18T06:27:45.835Z,9.37
2023-01-18T06:30:14.685Z,9.63
2023-01-18T06:32:43.317Z,8.67
2023-01-18T06:35:11.932Z,10.30
2023-01-18T06:37:41.851Z,8.40
2023-01-18T06:40:10.970Z,9.73
2023-01-18T06:42:39.863Z,10.10
2023-01-18T06:45:08.885Z,8.57
2023-01-18T06:47:37.402Z,7.60
2023-01-18T06:50:06.299Z,8.30
2023-01-18T06:52:34.853Z,8.43
2023-01-18T06:55:04.892Z,9.67
2023-01-18T06:57:33.446Z,10.07
2023-01-18T07:00:05.892Z,10.37
2023-01-18T07:02:34.690Z,11.10
2023-01-18T07:05:03.453Z,9.53
2023-01-18T07:07:32.276Z,8.77
2023-01-18T07:10:00.904Z,9.10
2023-01-18T07:12:30.799Z,8.77
2023-01-18T07:15:01.598Z,9.27
2023-01-18T07:17:33.536Z,9.93
2023-01-18T07:20:02.099Z,8.70
2023-01-18T07:22:30.647Z,10.47
2023-01-18T07:24:59.209Z,8.20
2023-01-18T07:27:28.195Z,8.40
2023-01-18T07:29:58.097Z,11.33
2023-01-18T07:32:26.740Z,9.50
2023-01-18T07:34:56.410Z,10.20
2023-01-18T07:37:26.058Z,9.90
2023-01-18T07:39:54.607Z,8.83
2023-01-18T07:42:23.179Z,10.93
2023-01-18T07:44:51.716Z,9.20
2023-01-18T07:47:21.678Z,10.27
2023-01-18T07:49:50.253Z,9.93
2023-01-18T07:52:18.833Z,10.97
2023-01-18T07:54:47.346Z,12.63
2023-01-18T07:57:15.994Z,10.20
2023-01-18T07:59:44.557Z,10.00
2023-01-18T08:02:14.428Z,13.27
2023-01-18T08:04:45.603Z,12.50
2023-01-18T08:07:14.175Z,14.83
2023-01-18T08:09:42.712Z,15.30
2023-01-18T08:12:13.576Z,13.57
2023-01-18T08:14:44.863Z,14.90
2023-01-18T08:17:14.175Z,14.63
2023-01-18T08:19:42.760Z,14.83
2023-01-18T08:22:12.659Z,15.37
2023-01-18T08:24:41.211Z,12.43
2023-01-18T08:27:09.767Z,15.53
2023-01-18T08:29:38.284Z,12.87
2023-01-18T08:32:06.935Z,13.73
2023-01-18T08:34:35.513Z,13.97
2023-01-18T08:37:04.182Z,15.00
2023-01-18T08:39:34.305Z,13.07
2023-01-18T08:42:02.824Z,13.10
2023-01-18T08:44:31.409Z,13.63
2023-01-18T08:46:59.920Z,13.30
2023-01-18T08:49:28.468Z,14.83
2023-01-18T08:51:57.983Z,12.40
2023-01-18T08:54:26.560Z,10.90
2023-01-18T08:56:56.440Z,10.97
2023-01-18T08:59:25.070Z,10.03
2023-01-18T09:01:53.695Z,11.80
2023-01-18T09:04:22.860Z,13.70
2023-01-18T09:06:51.767Z,12.50
2023-01-18T09:09:20.350Z,11.40
2023-01-18T09:11:51.972Z,11.33
2023-01-18T09:14:22.151Z,11.07
2023-01-18T09:16:51.022Z,13.30
2023-01-18T09:19:19.699Z,12.50
2023-01-18T09:21:49.741Z,12.30
2023-01-18T09:24:18.539Z,13.00
2023-01-18T09:26:50.882Z,13.87
2023-01-18T09:29:19.516Z,12.30
2023-01-18T09:31:50.029Z,9.90
2023-01-18T09:34:20.249Z,12.27
2023-01-18T09:36:51.333Z,10.43
2023-01-18T09:39:20.364Z,12.43
2023-01-18T09:41:53.068Z,11.13
2023-01-18T09:44:25.380Z,10.33
2023-01-18T09:46:57.415Z,11.50
2023-01-18T09:49:29.004Z,11.37
2023-01-18T09:52:00.601Z,10.53
2023-01-18T09:54:34.481Z,9.60
2023-01-18T09:57:06.323Z,13.13
2023-01-18T09:59:37.258Z,9.50
2023-01-18T10:02:15.546Z,10.60
2023-01-18T10:04:46.768Z,12.17
2023-01-18T10:07:16.776Z,9.90
2023-01-18T10:09:48.422Z,10.57
2023-01-18T10:12:19.457Z,9.23
2023-01-18T10:14:49.612Z,7.77
2023-01-18T10:17:22.931Z,10.50
2023-01-18T10:19:52.168Z,8.43
2023-01-18T10:22:23.749Z,8.37
2023-01-18T10:24:55.344Z,10.43
2023-01-18T10:27:39.337Z,10.50
2023-01-18T10:30:21.711Z,10.00
2023-01-18T10:32:53.902Z,10.53
2023-01-18T10:35:26.540Z,7.63
2023-01-18T10:37:58.520Z,8.07
2023-01-18T10:40:27.292Z,8.43
2023-01-18T10:42:59.631Z,7.63
2023-01-18T10:45:29.543Z,7.57
2023-01-18T10:48:00.236Z,6.93
2023-01-18T10:50:36.080Z,7.37
2023-01-18T10:53:19.490Z,7.80
2023-01-18T10:55:52.969Z,7.00
2023-01-18T10:58:25.943Z,6.03
2023-01-18T11:00:55.026Z,6.10
2023-01-18T11:03:26.184Z,7.07
2023-01-18T11:05:54.975Z,7.77
2023-01-18T11:08:24.193Z,6.43
2023-01-18T11:11:03.041Z,5.77
2023-01-18T11:13:33.084Z,5.30
2023-01-18T11:16:05.935Z,6.87
2023-01-18T11:18:35.931Z,5.80
2023-01-18T11:21:04.824Z,5.00
2023-01-18T11:23:35.656Z,5.33
2023-01-18T11:26:07.430Z,5.43
2023-01-18T11:28:39.184Z,6.30
2023-01-18T11:31:09.465Z,6.37
2023-01-18T11:33:41.205Z,6.10
2023-01-18T11:36:10.001Z,6.93
2023-01-18T11:38:38.594Z,7.13
2023-01-18T11:41:09.060Z,6.67
2023-01-18T11:43:39.440Z,7.30
2023-01-18T11:46:15.264Z,6.30
2023-01-18T11:48:49.659Z,7.33
2023-01-18T11:51:22.276Z,6.27
2023-01-18T11:53:55.508Z,6.33
2023-01-18T11:56:30.396Z,5.73
2023-01-18T11:58:59.239Z,7.50
2023-01-18T12:01:36.829Z,6.90
2023-01-18T12:04:08.727Z,7.13
2023-01-18T12:06:41.326Z,5.83
2023-01-18T12:09:20.752Z,5.97
2023-01-18T12:11:51.888Z,5.17
2023-01-18T12:14:36.014Z,5.70
2023-01-18T12:17:28.805Z,5.93
2023-01-18T12:20:08.638Z,7.63
2023-01-18T12:22:57.528Z,5.73
2023-01-18T12:25:37.247Z,5.10
2023-01-18T12:28:09.467Z,5.10
2023-01-18T12:30:44.759Z,7.23
2023-01-18T12:33:17.398Z,5.53
2023-01-18T12:35:53.600Z,5.30
2023-01-18T12:38:23.891Z,5.60
2023-01-18T12:41:03.128Z,6.17
2023-01-18T12:43:38.535Z,5.67
2023-01-18T12:46:09.266Z,6.30
2023-01-18T12:48:42.817Z,7.67
2023-01-18T12:51:15.474Z,6.53
2023-01-18T12:53:45.959Z,9.13
2023-01-18T12:56:16.456Z,5.03
2023-01-18T12:58:45.246Z,6.17
2023-01-18T13:01:16.497Z,5.60
2023-01-18T13:03:46.226Z,5.43
2023-01-18T13:06:16.397Z,5.83
2023-01-18T13:08:46.226Z,6.63
2023-01-18T13:11:17.171Z,4.73
2023-01-18T13:13:46.512Z,4.67
2023-01-18T13:16:21.261Z,5.10
2023-01-18T13:18:54.598Z,4.67
2023-01-18T13:21:29.663Z,4.33
2023-01-18T13:24:05.038Z,4.23
2023-01-18T13:26:34.690Z,4.63
2023-01-18T13:29:14.527Z,4.47
2023-01-18T13:31:43.079Z,4.20
2023-01-18T13:34:22.313Z,4.40
2023-01-18T13:36:55.855Z,4.53
2023-01-18T13:39:32.707Z,4.10
2023-01-18T13:42:09.037Z,3.90
2023-01-18T13:44:42.766Z,5.87
2023-01-18T13:47:26.219Z,4.77
2023-01-18T13:49:54.822Z,4.40
2023-01-18T13:52:32.182Z,5.07
2023-01-18T13:55:03.617Z,5.03
2023-01-18T13:57:33.138Z,4.33
2023-01-18T14:00:02.421Z,3.47
2023-01-18T14:02:33.987Z,4.73
2023-01-18T14:05:04.557Z,4.23
2023-01-18T14:07:41.283Z,5.27
2023-01-18T14:10:22.073Z,4.27
2023-01-18T14:12:51.916Z,4.50
2023-01-18T14:15:29.923Z,6.13
2023-01-18T14:17:59.315Z,6.77
2023-01-18T14:20:38.396Z,4.63
2023-01-18T14:23:16.609Z,4.47
2023-01-18T14:25:52.274Z,4.70
2023-01-18T14:28:23.861Z,4.80
2023-01-18T14:30:56.682Z,5.43
2023-01-18T14:33:26.397Z,4.63
2023-01-18T14:35:58.103Z,6.40
2023-01-18T14:38:28.300Z,5.10
2023-01-18T14:40:58.202Z,6.33
2023-01-18T14:43:28.702Z,6.80
2023-01-18T14:46:00.200Z,9.10
2023-01-18T14:48:30.787Z,6.43
2023-01-18T14:51:00.122Z,6.10
2023-01-18T14:53:30.785Z,5.90
2023-01-18T14:56:03.088Z,5.57
2023-01-18T14:58:34.753Z,6.47
2023-01-18T15:01:03.468Z,6.27
2023-01-18T15:03:32.528Z,5.93
2023-01-18T15:06:03.868Z,5.83
2023-01-18T15:08:35.260Z,7.40
2023-01-18T15:11:05.473Z,7.20
2023-01-18T15:13:34.913Z,8.03
2023-01-18T15:16:03.975Z,7.17
2023-01-18T15:18:32.624Z,7.03
2023-01-18T15:21:02.390Z,6.83
2023-01-18T15:23:31.552Z,7.70
2023-01-18T15:26:01.495Z,6.90
2023-01-18T15:28:34.216Z,6.90
2023-01-18T15:31:07.414Z,6.43
2023-01-18T15:33:36.982Z,6.37
2023-01-18T15:36:05.698Z,6.87
2023-01-18T15:38:34.424Z,5.77
2023-01-18T15:41:06.378Z,6.27
2023-01-18T15:43:35.732Z,6.10
2023-01-18T15:46:04.592Z,6.43
2023-01-18T15:48:36.956Z,7.43
2023-01-18T15:51:10.923Z,6.40
2023-01-18T15:53:40.452Z,5.30
2023-01-18T15:56:16.325Z,5.93
2023-01-18T15:58:46.217Z,6.57
2023-01-18T16:01:19.469Z,6.23
2023-01-18T16:03:56.608Z,5.63
2023-01-18T16:06:32.747Z,4.73
2023-01-18T16:09:10.539Z,6.47
2023-01-18T16:11:48.013Z,6.17
2023-01-18T16:14:24.144Z,5.93
2023-01-18T16:16:53.744Z,7.00
2023-01-18T16:19:24.870Z,8.87
2023-01-18T16:21:54.829Z,7.70
2023-01-18T16:24:31.917Z,6.13
2023-01-18T16:27:03.373Z,5.10
2023-01-18T16:29:40.394Z,6.30
2023-01-18T16:32:19.312Z,6.30
2023-01-18T16:34:47.953Z,6.73
2023-01-18T16:37:17.998Z,5.50
2023-01-18T16:39:46.845Z,7.00
2023-01-18T16:42:18.205Z,5.63
2023-01-18T16:44:48.724Z,4.97
2023-01-18T16:47:18.452Z,5.43
2023-01-18T16:49:47.678Z,5.00
2023-01-18T16:52:17.031Z,5.73
2023-01-18T16:54:46.405Z,7.10
2023-01-18T16:57:19.767Z,7.57
2023-01-18T16:59:48.357Z,4.30
2023-01-18T17:02:17.507Z,5.50
2023-01-18T17:04:46.519Z,6.20
2023-01-18T17:07:15.251Z,5.93
2023-01-18T17:09:48.705Z,4.67
2023-01-18T17:12:19.221Z,5.30
2023-01-18T17:14:47.772Z,4.93
2023-01-18T17:17:16.369Z,5.90
2023-01-18T17:19:45.018Z,4.77
2023-01-18T17:22:13.624Z,4.50
2023-01-18T17:24:42.177Z,4.10
2023-01-18T17:27:11.693Z,4.57
2023-01-18T17:29:41.651Z,4.60
2023-01-18T17:32:13.031Z,5.77
2023-01-18T17:34:41.627Z,5.80
2023-01-18T17:37:11.037Z,3.77
2023-01-18T17:39:49.618Z,4.00
2023-01-18T17:42:30.212Z,4.93
2023-01-18T17:45:03.788Z,3.87
2023-01-18T17:47:33.078Z,5.90
2023-01-18T17:50:08.440Z,4.70
2023-01-18T17:52:37.235Z,4.07
2023-01-18T17:55:06.587Z,5.93
2023-01-18T17:57:35.343Z,3.50
2023-01-18T18:00:06.017Z,5.70
2023-01-18T18:02:34.624Z,4.10
2023-01-18T18:05:03.970Z,3.77
2023-01-18T18:07:32.539Z,3.40
2023-01-18T18:10:01.787Z,3.93
2023-01-18T18:12:30.603Z,3.33
2023-01-18T18:14:59.137Z,3.33
2023-01-18T18:17:30.218Z,3.63
2023-01-18T18:19:58.785Z,4.77
2023-01-18T18:22:27.762Z,4.00
2023-01-18T18:24:56.327Z,3.50
2023-01-18T18:27:33.895Z,3.93
2023-01-18T18:30:06.599Z,3.67
2023-01-18T18:32:36.554Z,3.40
2023-01-18T18:35:14.838Z,3.13
2023-01-18T18:37:52.096Z,4.57
2023-01-18T18:40:20.765Z,3.47
2023-01-18T18:43:01.287Z,4.57
2023-01-18T18:45:31.725Z,4.70
2023-01-18T18:48:01.687Z,4.77
2023-01-18T18:50:30.741Z,3.93
2023-01-18T18:52:59.854Z,3.70
2023-01-18T18:55:28.646Z,3.60
2023-01-18T18:57:57.332Z,3.80
2023-01-18T19:00:27.324Z,4.10
2023-01-18T19:02:59.094Z,3.53
2023-01-18T19:05:29.469Z,3.37
2023-01-18T19:07:58.260Z,3.43
2023-01-18T19:10:30.215Z,4.70
2023-01-18T19:12:59.372Z,4.53
2023-01-18T19:15:28.200Z,5.03
2023-01-18T19:17:57.887Z,4.27
2023-01-18T19:20:26.529Z,5.57
2023-01-18T19:22:56.744Z,4.93
2023-01-18T19:25:25.322Z,4.27
2023-01-18T19:27:53.868Z,4.00
2023-01-18T19:30:22.611Z,4.40
2023-01-18T19:32:51.836Z,4.20
2023-01-18T19:35:20.909Z,4.27
2023-01-18T19:37:49.866Z,4.90
2023-01-18T19:40:20.108Z,4.47
2023-01-18T19:42:54.842Z,4.83
2023-01-18T19:45:28.314Z,6.47
2023-01-18T19:47:57.679Z,5.77
2023-01-18T19:50:26.485Z,4.70
2023-01-18T19:52:55.192Z,5.87
2023-01-18T19:55:25.388Z,5.47
2023-01-18T19:57:58.276Z,5.60
2023-01-18T20:00:28.865Z,4.90
2023-01-18T20:02:57.780Z,5.60
2023-01-18T20:05:27.211Z,4.43
2023-01-18T20:07:55.888Z,7.67
2023-01-18T20:10:26.108Z,6.97
2023-01-18T20:12:54.653Z,5.37
2023-01-18T20:15:23.193Z,6.30
2023-01-18T20:17:51.750Z,5.30
2023-01-18T20:20:31.447Z,6.33
2023-01-18T20:23:01.377Z,7.90
2023-01-18T20:25:31.599Z,6.73
2023-01-18T20:28:00.156Z,5.33
2023-01-18T20:30:28.703Z,6.10
2023-01-18T20:32:57.744Z,6.03
2023-01-18T20:35:27.377Z,6.83
2023-01-18T20:37:56.281Z,5.20
2023-01-18T20:40:24.853Z,6.03
2023-01-18T20:42:54.777Z,7.10
2023-01-18T20:45:23.320Z,6.43
2023-01-18T20:47:51.870Z,6.73
2023-01-18T20:50:23.110Z,7.10
2023-01-18T20:52:51.823Z,6.43
2023-01-18T20:55:20.495Z,5.73
2023-01-18T20:57:52.027Z,7.10
2023-01-18T21:00:22.586Z,5.93
2023-01-18T21:02:51.251Z,6.17
2023-01-18T21:05:19.897Z,6.03
2023-01-18T21:07:48.487Z,7.37
2023-01-18T21:10:17.360Z,5.13
2023-01-18T21:12:47.552Z,5.83
2023-01-18T21:15:16.733Z,5.40
2023-01-18T21:17:46.726Z,7.83
2023-01-18T21:20:15.457Z,6.47
2023-01-18T21:22:44.117Z,7.00
2023-01-18T21:25:12.707Z,4.67
2023-01-18T21:27:43.507Z,5.80
2023-01-18T21:30:12.747Z,6.13
2023-01-18T21:32:41.358Z,5.37
2023-01-18T21:35:11.637Z,5.20
2023-01-18T21:37:40.249Z,5.80
2023-01-18T21:40:09.547Z,6.17
2023-01-18T21:42:55.875Z,6.10
2023-01-18T21:45:42.434Z,6.57
2023-01-18T21:48:11.146Z,6.17
2023-01-18T21:50:59.789Z,6.13
2023-01-18T21:53:46.263Z,6.30
2023-01-18T21:56:14.815Z,5.20
2023-01-18T21:58:57.789Z,6.47
2023-01-18T22:01:27.508Z,6.27
2023-01-18T22:04:14.533Z,5.47
2023-01-18T22:06:44.488Z,5.57
2023-01-18T22:09:13.286Z,6.17
2023-01-18T22:11:42.221Z,5.87
2023-01-18T22:14:11.262Z,5.70
2023-01-18T22:16:40.042Z,6.43
2023-01-18T22:19:08.779Z,6.67
2023-01-18T22:21:37.518Z,5.60
2023-01-18T22:24:07.851Z,5.93
2023-01-18T22:26:36.640Z,5.23
2023-01-18T22:29:05.252Z,6.10
2023-01-18T22:31:33.984Z,7.83
2023-01-18T22:34:04.535Z,6.40
2023-01-18T22:36:34.055Z,6.03
2023-01-18T22:39:02.867Z,7.00
2023-01-18T22:41:32.756Z,6.27
2023-01-18T22:44:01.347Z,6.67
2023-01-18T22:46:29.991Z,7.93
2023-01-18T22:48:59.468Z,7.23
2023-01-18T22:51:28.267Z,6.03
2023-01-18T22:53:57.177Z,6.30
2023-01-18T22:56:26.859Z,8.30
2023-01-18T22:58:56.761Z,7.57
2023-01-18T23:01:26.612Z,6.77
2023-01-18T23:03:56.712Z,8.50
2023-01-18T23:06:25.287Z,6.53
2023-01-18T23:08:54.287Z,6.20
2023-01-18T23:11:23.823Z,5.90
2023-01-18T23:14:10.949Z,7.87
2023-01-18T23:16:59.052Z,6.67
2023-01-18T23:19:29.623Z,5.47
2023-01-18T23:21:59.296Z,5.73
2023-01-18T23:24:28.302Z,7.23
2023-01-18T23:26:57.094Z,6.07
2023-01-18T23:29:25.704Z,7.87
2023-01-18T23:31:57.360Z,5.97
2023-01-18T23:34:26.895Z,5.83
2023-01-18T23:36:55.935Z,6.27
2023-01-18T23:39:42.512Z,6.10
2023-01-18T23:42:28.904Z,5.50
2023-01-18T23:45:15.220Z,6.97
2023-01-18T23:48:03.360Z,6.83
2023-01-18T23:50:49.961Z,5.90
2023-01-18T23:53:36.178Z,5.57
2023-01-18T23:56:04.715Z,6.23
2023-01-18T23:58:33.296Z,6.70
